createdAt,value
2023-03-25T00:00:25.702Z,285.00
2023-03-25T00:01:32.967Z,281.98
2023-03-25T00:02:35.748Z,323.55
2023-03-25T00:03:42.073Z,278.70
2023-03-25T00:04:44.347Z,308.70
2023-03-25T00:05:49.690Z,281.65
2023-03-25T00:06:52.226Z,332.48
2023-03-25T00:07:57.602Z,350.67
2023-03-25T00:08:59.769Z,332.90
2023-03-25T00:10:04.493Z,316.05
2023-03-25T00:11:08.547Z,311.02
2023-03-25T00:12:13.444Z,333.17
2023-03-25T00:13:15.694Z,252.50
2023-03-25T00:14:20.466Z,294.38
2023-03-25T00:15:24.027Z,261.15
2023-03-25T00:16:31.481Z,281.63
2023-03-25T00:17:33.718Z,253.75
2023-03-25T00:18:40.179Z,259.15
2023-03-25T00:19:43.368Z,298.17
2023-03-25T00:20:49.784Z,263.13
2023-03-25T00:21:52.304Z,282.30
2023-03-25T00:22:57.462Z,277.83
2023-03-25T00:23:59.603Z,191.55
2023-03-25T00:25:04.429Z,267.23
2023-03-25T00:26:07.672Z,214.50
2023-03-25T00:27:12.411Z,244.13
2023-03-25T00:28:15.346Z,272.92
2023-03-25T00:29:20.265Z,228.07
2023-03-25T00:30:22.556Z,222.82
2023-03-25T00:31:27.418Z,199.98
2023-03-25T00:32:32.259Z,241.63
2023-03-25T00:33:37.776Z,275.15
2023-03-25T00:34:42.132Z,249.23
2023-03-25T00:35:49.604Z,269.77
2023-03-25T00:36:54.610Z,271.13
2023-03-25T00:38:00.582Z,209.60
2023-03-25T00:39:05.480Z,201.45
2023-03-25T00:40:09.659Z,280.95
2023-03-25T00:41:17.805Z,189.35
2023-03-25T00:42:26.586Z,237.43
2023-03-25T00:43:28.760Z,203.02
2023-03-25T00:44:34.147Z,226.07
2023-03-25T00:45:36.449Z,288.75
2023-03-25T00:46:42.023Z,284.02
2023-03-25T00:47:47.097Z,318.98
2023-03-25T00:48:52.901Z,342.63
2023-03-25T00:49:55.106Z,345.58
2023-03-25T00:50:59.885Z,330.90
2023-03-25T00:52:02.122Z,323.13
2023-03-25T00:53:08.526Z,404.80
2023-03-25T00:54:11.930Z,361.55
2023-03-25T00:55:17.447Z,328.88
2023-03-25T00:56:19.859Z,370.02
2023-03-25T00:57:25.108Z,280.00
2023-03-25T00:58:27.221Z,355.85
2023-03-25T00:59:31.916Z,398.17
2023-03-25T01:00:34.472Z,294.23
2023-03-25T01:01:40.910Z,342.92
2023-03-25T01:02:44.050Z,416.50
2023-03-25T01:03:57.989Z,357.90
2023-03-25T01:05:00.385Z,312.67
2023-03-25T01:06:05.097Z,316.83
2023-03-25T01:07:08.103Z,344.60
2023-03-25T01:08:15.010Z,338.52
2023-03-25T01:09:17.357Z,327.98
2023-03-25T01:10:22.456Z,328.98
2023-03-25T01:11:27.178Z,299.77
2023-03-25T01:12:31.927Z,404.15
2023-03-25T01:13:34.103Z,276.10
2023-03-25T01:14:38.922Z,317.45
2023-03-25T01:15:41.352Z,359.33
2023-03-25T01:16:46.929Z,365.90
2023-03-25T01:17:49.236Z,295.33
2023-03-25T01:18:56.877Z,403.88
2023-03-25T01:19:59.227Z,337.30
2023-03-25T01:21:03.985Z,334.27
2023-03-25T01:22:07.973Z,270.02
2023-03-25T01:23:12.742Z,274.35
2023-03-25T01:24:15.555Z,334.90
2023-03-25T01:25:20.585Z,333.77
2023-03-25T01:26:22.709Z,313.17
2023-03-25T01:27:27.503Z,281.65
2023-03-25T01:28:29.848Z,393.33
2023-03-25T01:29:35.051Z,303.27
2023-03-25T01:30:37.246Z,252.40
2023-03-25T01:31:42.114Z,432.13
2023-03-25T01:32:44.828Z,259.02
2023-03-25T01:33:49.536Z,339.88
2023-03-25T01:34:54.317Z,358.42
2023-03-25T01:35:59.235Z,306.45
2023-03-25T01:37:01.347Z,284.00
2023-03-25T01:38:06.393Z,290.25
2023-03-25T01:39:09.355Z,284.17
2023-03-25T01:40:21.293Z,282.40
2023-03-25T01:41:23.630Z,312.33
2023-03-25T01:42:28.418Z,305.90
2023-03-25T01:43:30.810Z,293.33
2023-03-25T01:45:06.605Z,308.83
2023-03-25T01:46:14.490Z,318.35
2023-03-25T01:47:19.995Z,348.17
2023-03-25T01:48:28.615Z,374.70
2023-03-25T01:49:33.746Z,415.70
2023-03-25T01:50:45.499Z,499.20
2023-03-25T01:51:51.510Z,514.53
2023-03-25T01:52:56.373Z,552.50
2023-03-25T01:53:58.743Z,423.00
2023-03-25T01:55:03.595Z,451.73
2023-03-25T01:56:09.007Z,518.70
2023-03-25T01:57:18.504Z,444.60
2023-03-25T01:58:23.021Z,467.20
2023-03-25T01:59:30.697Z,454.13
2023-03-25T02:00:32.867Z,388.50
2023-03-25T02:01:37.659Z,358.98
2023-03-25T02:02:40.571Z,336.00
2023-03-25T02:03:51.442Z,372.55
2023-03-25T02:05:02.628Z,444.35
2023-03-25T02:06:15.237Z,327.60
2023-03-25T02:07:18.920Z,352.77
2023-03-25T02:08:25.921Z,357.13
2023-03-25T02:09:28.341Z,339.48
2023-03-25T02:10:33.499Z,326.42
2023-03-25T02:11:36.421Z,246.30
2023-03-25T02:12:41.819Z,319.70
2023-03-25T02:13:46.641Z,389.17
2023-03-25T02:14:48.868Z,356.25
2023-03-25T02:16:17.871Z,374.02
2023-03-25T02:17:30.619Z,343.58
2023-03-25T02:18:44.980Z,268.80
2023-03-25T02:20:19.511Z,355.75
2023-03-25T02:22:06.087Z,357.98
2023-03-25T02:23:48.193Z,334.65
2023-03-25T02:25:23.436Z,278.67
2023-03-25T02:27:00.048Z,348.45
2023-03-25T02:28:12.775Z,347.90
2023-03-25T02:29:26.914Z,237.50
2023-03-25T02:30:54.988Z,320.70
2023-03-25T02:32:17.257Z,595.10
2023-03-25T02:33:55.581Z,345.10
2023-03-25T02:35:16.396Z,410.63
2023-03-25T02:36:50.955Z,432.52
2023-03-25T02:38:19.512Z,411.33
2023-03-25T02:39:33.297Z,380.60
2023-03-25T02:40:42.640Z,381.15
2023-03-25T02:41:55.548Z,357.88
2023-03-25T02:43:05.977Z,403.42
2023-03-25T02:44:17.105Z,382.52
2023-03-25T02:45:26.157Z,334.92
2023-03-25T02:46:33.517Z,363.77
2023-03-25T02:47:42.799Z,421.38
2023-03-25T02:48:54.413Z,313.00
2023-03-25T02:51:10.485Z,293.83
2023-03-25T02:53:24.469Z,349.30
2023-03-25T02:54:33.681Z,385.92
2023-03-25T02:55:41.642Z,381.25
2023-03-25T02:56:47.532Z,414.77
2023-03-25T02:57:57.368Z,421.42
2023-03-25T02:59:01.340Z,387.67
2023-03-25T03:00:15.422Z,388.10
2023-03-25T03:01:17.784Z,400.98
2023-03-25T03:02:25.840Z,450.50
2023-03-25T03:03:29.157Z,391.80
2023-03-25T03:04:33.916Z,387.17
2023-03-25T03:05:39.785Z,432.05
2023-03-25T03:06:46.512Z,423.42
2023-03-25T03:07:53.967Z,470.58
2023-03-25T03:09:14.300Z,497.63
2023-03-25T03:10:22.495Z,369.50
2023-03-25T03:11:31.126Z,364.10
2023-03-25T03:12:47.614Z,276.45
2023-03-25T03:14:07.371Z,450.52
2023-03-25T03:15:24.421Z,378.92
2023-03-25T03:16:34.117Z,363.08
2023-03-25T03:17:46.420Z,284.90
2023-03-25T03:18:58.826Z,450.35
2023-03-25T03:20:10.153Z,365.95
2023-03-25T03:21:17.039Z,326.92
2023-03-25T03:22:37.250Z,472.00
2023-03-25T03:23:51.710Z,193.48
2023-03-25T03:25:04.030Z,433.75
2023-03-25T03:26:17.885Z,370.45
2023-03-25T03:27:34.140Z,381.70
2023-03-25T03:28:48.098Z,499.55
2023-03-25T03:29:54.958Z,396.73
2023-03-25T03:31:07.140Z,389.30
2023-03-25T03:32:13.898Z,321.83
2023-03-25T03:33:25.709Z,363.30
2023-03-25T03:34:32.828Z,345.63
2023-03-25T03:35:41.054Z,341.85
2023-03-25T03:36:47.287Z,401.98
2023-03-25T03:37:58.406Z,391.63
2023-03-25T03:39:07.463Z,342.15
2023-03-25T03:40:17.472Z,262.95
2023-03-25T03:41:27.305Z,361.67
2023-03-25T03:42:37.667Z,363.75
2023-03-25T03:43:43.337Z,366.02
2023-03-25T03:44:54.228Z,364.20
2023-03-25T03:46:00.331Z,435.30
2023-03-25T03:47:07.416Z,378.42
2023-03-25T03:48:16.263Z,309.65
2023-03-25T03:49:26.508Z,413.77
2023-03-25T03:50:31.964Z,247.73
2023-03-25T03:51:41.727Z,375.08
2023-03-25T03:52:51.695Z,560.17
2023-03-25T03:54:01.822Z,381.58
2023-03-25T03:55:10.985Z,369.30
2023-03-25T03:56:22.133Z,351.25
2023-03-25T03:57:30.560Z,253.52
2023-03-25T03:58:43.223Z,293.75
2023-03-25T03:59:53.791Z,421.20
2023-03-25T04:01:06.754Z,428.48
2023-03-25T04:02:17.380Z,379.65
2023-03-25T04:03:28.580Z,385.60
2023-03-25T04:04:31.886Z,452.02
2023-03-25T04:05:38.760Z,395.83
2023-03-25T04:06:44.249Z,338.48
2023-03-25T04:07:55.168Z,454.75
2023-03-25T04:10:15.037Z,345.45
2023-03-25T04:11:25.132Z,393.17
2023-03-25T04:12:32.716Z,396.27
2023-03-25T04:13:40.548Z,272.23
2023-03-25T04:14:43.461Z,319.52
2023-03-25T04:15:48.577Z,336.55
2023-03-25T04:16:53.318Z,307.42
2023-03-25T04:17:58.091Z,407.23
2023-03-25T04:19:00.181Z,384.08
2023-03-25T04:20:08.996Z,252.55
2023-03-25T04:23:10.063Z,322.55
2023-03-25T04:24:12.263Z,273.60
2023-03-25T04:25:17.194Z,264.92
2023-03-25T04:26:20.103Z,327.50
2023-03-25T04:27:29.971Z,301.98
2023-03-25T04:28:36.978Z,287.63
2023-03-25T04:29:44.148Z,295.40
2023-03-25T04:30:46.699Z,389.02
2023-03-25T04:31:54.962Z,355.33
2023-03-25T04:32:57.455Z,326.45
2023-03-25T04:34:02.870Z,330.88
2023-03-25T04:35:05.680Z,252.38
2023-03-25T04:36:11.938Z,258.05
2023-03-25T04:37:16.841Z,175.65
2023-03-25T04:38:19.551Z,290.90
2023-03-25T04:39:25.893Z,339.60
2023-03-25T04:40:28.035Z,265.70
2023-03-25T04:41:33.849Z,255.43
2023-03-25T04:42:37.532Z,250.27
2023-03-25T04:43:45.427Z,261.30
2023-03-25T04:44:47.525Z,302.58
2023-03-25T04:45:55.298Z,313.45
2023-03-25T04:46:58.038Z,291.85
2023-03-25T04:48:06.187Z,222.20
2023-03-25T04:49:14.461Z,282.17
2023-03-25T04:50:23.351Z,309.50
2023-03-25T04:51:25.524Z,312.75
2023-03-25T04:52:30.635Z,338.52
2023-03-25T04:53:32.996Z,315.23
2023-03-25T04:54:38.656Z,312.55
2023-03-25T04:55:48.339Z,297.38
2023-03-25T04:56:55.114Z,334.38
2023-03-25T04:57:57.469Z,283.55
2023-03-25T04:59:04.766Z,361.58
2023-03-25T05:00:11.760Z,304.92
2023-03-25T05:01:24.424Z,366.27
2023-03-25T05:02:27.303Z,301.40
2023-03-25T05:03:32.015Z,284.88
2023-03-25T05:04:34.467Z,470.83
2023-03-25T05:05:39.281Z,295.25
2023-03-25T05:06:43.708Z,211.40
2023-03-25T05:07:49.943Z,362.13
2023-03-25T05:08:52.092Z,321.80
2023-03-25T05:09:57.368Z,326.25
2023-03-25T05:10:59.514Z,405.10
2023-03-25T05:12:04.324Z,343.92
2023-03-25T05:13:08.393Z,142.98
2023-03-25T05:14:18.349Z,276.73
2023-03-25T05:15:20.570Z,244.27
2023-03-25T05:16:25.856Z,317.67
2023-03-25T05:17:30.076Z,320.80
2023-03-25T05:18:34.890Z,358.73
2023-03-25T05:19:37.063Z,374.58
2023-03-25T05:20:43.350Z,359.05
2023-03-25T05:21:45.671Z,265.13
2023-03-25T05:22:50.396Z,359.10
2023-03-25T05:23:52.949Z,299.73
2023-03-25T05:24:57.630Z,397.27
2023-03-25T05:26:00.198Z,399.33
2023-03-25T05:27:04.957Z,368.90
2023-03-25T05:28:10.085Z,357.98
2023-03-25T05:29:19.426Z,332.85
2023-03-25T05:30:21.707Z,272.92
2023-03-25T05:31:26.383Z,325.55
2023-03-25T05:32:30.328Z,302.15
2023-03-25T05:33:35.231Z,312.15
2023-03-25T05:34:38.842Z,310.88
2023-03-25T05:35:43.740Z,350.35
2023-03-25T05:36:46.080Z,324.23
2023-03-25T05:37:51.724Z,276.67
2023-03-25T05:38:54.722Z,413.38
2023-03-25T05:39:59.521Z,285.10
2023-03-25T05:41:01.694Z,245.88
2023-03-25T05:42:06.518Z,300.80
2023-03-25T05:43:08.812Z,230.80
2023-03-25T05:44:14.917Z,275.98
2023-03-25T05:45:19.903Z,300.17
2023-03-25T05:46:24.726Z,298.83
2023-03-25T05:47:29.277Z,258.40
2023-03-25T05:48:35.978Z,360.05
2023-03-25T05:49:38.078Z,296.73
2023-03-25T05:50:43.432Z,286.23
2023-03-25T05:51:46.046Z,366.85
2023-03-25T05:52:52.609Z,299.52
2023-03-25T05:53:54.831Z,266.15
2023-03-25T05:54:59.571Z,347.92
2023-03-25T05:56:01.732Z,293.98
2023-03-25T05:57:06.710Z,241.43
2023-03-25T05:58:08.865Z,182.07
2023-03-25T05:59:14.648Z,277.10
2023-03-25T06:00:23.414Z,307.05
2023-03-25T06:01:33.111Z,281.30
2023-03-25T06:02:39.001Z,216.85
2023-03-25T06:03:44.129Z,321.50
2023-03-25T06:04:50.774Z,294.90
2023-03-25T06:05:56.782Z,293.08
2023-03-25T06:06:59.049Z,329.10
2023-03-25T06:08:04.050Z,334.50
2023-03-25T06:09:07.260Z,344.45
2023-03-25T06:10:17.358Z,332.67
2023-03-25T06:11:20.818Z,282.60
2023-03-25T06:12:27.801Z,268.77
2023-03-25T06:13:34.283Z,289.45
2023-03-25T06:14:36.414Z,292.45
2023-03-25T06:15:44.816Z,264.45
2023-03-25T06:16:47.373Z,297.00
2023-03-25T06:17:52.173Z,304.05
2023-03-25T06:18:56.618Z,345.98
2023-03-25T06:20:05.920Z,332.55
2023-03-25T06:21:08.897Z,316.35
2023-03-25T06:22:14.696Z,295.02
2023-03-25T06:23:16.926Z,293.65
2023-03-25T06:24:22.399Z,284.80
2023-03-25T06:25:28.677Z,303.95
2023-03-25T06:26:33.488Z,404.60
2023-03-25T06:27:40.655Z,350.98
2023-03-25T06:28:46.328Z,288.83
2023-03-25T06:29:48.833Z,286.90
2023-03-25T06:30:57.349Z,267.63
2023-03-25T06:31:59.536Z,312.50
2023-03-25T06:33:06.277Z,308.73
2023-03-25T06:34:08.477Z,342.23
2023-03-25T06:35:18.461Z,277.48
2023-03-25T06:36:20.865Z,283.80
2023-03-25T06:37:26.200Z,335.08
2023-03-25T06:38:30.257Z,167.35
2023-03-25T06:39:38.161Z,248.90
2023-03-25T06:40:43.045Z,251.18
2023-03-25T06:41:45.260Z,273.55
2023-03-25T06:42:50.052Z,238.15
2023-03-25T06:43:52.349Z,271.63
2023-03-25T06:44:57.568Z,287.92
2023-03-25T06:46:02.463Z,355.30
2023-03-25T06:47:07.666Z,362.95
2023-03-25T06:48:09.950Z,353.60
2023-03-25T06:49:14.723Z,278.55
2023-03-25T06:50:16.853Z,265.38
2023-03-25T06:51:22.876Z,289.33
2023-03-25T06:52:25.083Z,277.80
2023-03-25T06:53:29.999Z,281.33
2023-03-25T06:54:32.301Z,289.33
2023-03-25T06:55:37.027Z,207.45
2023-03-25T06:56:39.337Z,296.65
2023-03-25T06:57:44.717Z,200.40
2023-03-25T06:58:47.094Z,290.42
2023-03-25T06:59:51.914Z,315.23
2023-03-25T07:00:54.953Z,285.60
2023-03-25T07:02:02.463Z,319.42
2023-03-25T07:03:07.453Z,366.10
2023-03-25T07:04:12.262Z,306.58
2023-03-25T07:05:14.505Z,282.25
2023-03-25T07:06:21.978Z,338.13
2023-03-25T07:07:24.097Z,286.65
2023-03-25T07:08:28.838Z,269.35
2023-03-25T07:09:30.977Z,293.05
2023-03-25T07:10:35.710Z,296.92
2023-03-25T07:11:37.998Z,289.52
2023-03-25T07:12:42.749Z,307.13
2023-03-25T07:13:44.848Z,292.30
2023-03-25T07:14:54.144Z,298.40
2023-03-25T07:15:56.780Z,296.00
2023-03-25T07:17:04.180Z,341.85
2023-03-25T07:18:06.481Z,317.23
2023-03-25T07:19:11.380Z,206.65
2023-03-25T07:20:15.840Z,256.40
2023-03-25T07:21:22.153Z,259.75
2023-03-25T07:22:24.419Z,284.05
2023-03-25T07:23:29.588Z,296.13
2023-03-25T07:24:31.864Z,165.32
2023-03-25T07:25:37.228Z,331.08
2023-03-25T07:26:39.397Z,305.23
2023-03-25T07:27:44.310Z,310.10
2023-03-25T07:28:48.201Z,270.20
2023-03-25T07:29:53.074Z,322.60
2023-03-25T07:30:55.151Z,302.10
2023-03-25T07:31:59.930Z,308.73
2023-03-25T07:33:04.806Z,336.25
2023-03-25T07:34:09.587Z,347.42
2023-03-25T07:35:11.947Z,341.42
2023-03-25T07:36:16.915Z,272.80
2023-03-25T07:37:18.982Z,307.45
2023-03-25T07:38:23.724Z,337.38
2023-03-25T07:39:25.958Z,491.85
2023-03-25T07:40:30.632Z,315.67
2023-03-25T07:41:32.724Z,312.40
2023-03-25T07:42:39.181Z,228.15
2023-03-25T07:43:42.123Z,302.23
2023-03-25T07:44:46.862Z,345.63
2023-03-25T07:45:51.588Z,300.55
2023-03-25T07:46:53.845Z,293.25
2023-03-25T07:47:58.761Z,332.58
2023-03-25T07:49:03.619Z,316.80
2023-03-25T07:50:09.845Z,318.38
2023-03-25T07:51:14.572Z,246.18
2023-03-25T07:52:16.706Z,286.52
2023-03-25T07:53:21.899Z,286.98
2023-03-25T07:54:24.665Z,183.00
2023-03-25T07:55:29.416Z,267.52
2023-03-25T07:56:31.612Z,250.68
2023-03-25T07:57:36.284Z,247.75
2023-03-25T07:58:38.680Z,228.68
2023-03-25T07:59:43.519Z,214.15
2023-03-25T08:00:45.944Z,348.92
2023-03-25T08:01:50.992Z,166.00
2023-03-25T08:02:53.188Z,250.13
2023-03-25T08:03:58.041Z,276.10
2023-03-25T08:05:06.051Z,306.45
2023-03-25T08:06:11.825Z,317.63
2023-03-25T08:07:14.010Z,410.98
2023-03-25T08:08:18.997Z,285.17
2023-03-25T08:09:23.815Z,291.40
2023-03-25T08:10:26.921Z,327.58
2023-03-25T08:11:33.193Z,304.60
2023-03-25T08:12:37.612Z,325.48
2023-03-25T08:13:42.547Z,221.50
2023-03-25T08:14:44.665Z,262.85
2023-03-25T08:15:49.787Z,291.73
2023-03-25T08:16:52.152Z,141.55
2023-03-25T08:17:57.868Z,223.05
2023-03-25T08:19:00.147Z,144.50
2023-03-25T08:20:09.545Z,161.85
2023-03-25T08:21:11.875Z,185.95
2023-03-25T08:22:16.639Z,156.82
2023-03-25T08:23:20.229Z,158.95
2023-03-25T08:24:27.069Z,137.90
2023-03-25T08:25:29.814Z,136.48
2023-03-25T08:26:35.233Z,103.07
2023-03-25T08:27:37.403Z,105.57
2023-03-25T08:28:42.136Z,100.65
2023-03-25T08:29:44.330Z,79.18
2023-03-25T08:30:49.607Z,155.18
2023-03-25T08:31:53.722Z,115.97
2023-03-25T08:32:58.494Z,80.93
2023-03-25T08:35:38.257Z,98.78
2023-03-25T08:36:40.443Z,130.90
2023-03-25T08:37:45.168Z,119.32
2023-03-25T08:38:47.532Z,77.03
2023-03-25T08:39:52.222Z,126.47
2023-03-25T08:40:54.373Z,133.60
2023-03-25T08:41:59.473Z,95.95
2023-03-25T08:43:03.652Z,108.38
2023-03-25T08:44:08.877Z,141.23
2023-03-25T08:45:12.134Z,157.23
2023-03-25T08:46:17.128Z,200.57
2023-03-25T08:47:19.371Z,128.95
2023-03-25T08:48:25.075Z,129.88
2023-03-25T08:49:29.788Z,105.28
2023-03-25T08:50:34.547Z,88.95
2023-03-25T08:51:39.284Z,89.68
2023-03-25T08:52:42.244Z,97.90
2023-03-25T08:53:46.953Z,115.97
2023-03-25T08:54:49.212Z,92.45
2023-03-25T08:55:55.732Z,165.07
2023-03-25T08:56:58.074Z,142.27
2023-03-25T08:58:05.114Z,110.57
2023-03-25T08:59:09.808Z,370.55
2023-03-25T09:00:13.399Z,150.20
2023-03-25T09:01:18.140Z,155.23
2023-03-25T09:02:20.713Z,157.32
2023-03-25T09:03:27.252Z,147.75
2023-03-25T09:04:29.652Z,122.97
2023-03-25T09:05:39.811Z,170.05
2023-03-25T09:06:47.541Z,123.57
2023-03-25T09:07:53.384Z,178.52
2023-03-25T09:08:58.934Z,140.20
2023-03-25T09:10:04.217Z,149.32
2023-03-25T09:11:09.493Z,242.80
2023-03-25T09:12:11.824Z,272.55
2023-03-25T09:13:16.686Z,192.30
2023-03-25T09:14:18.886Z,230.93
2023-03-25T09:15:24.054Z,138.75
2023-03-25T09:16:26.382Z,125.95
2023-03-25T09:17:31.159Z,117.05
2023-03-25T09:18:33.309Z,144.80
2023-03-25T09:19:38.183Z,181.18
2023-03-25T09:20:47.860Z,136.63
2023-03-25T09:21:52.562Z,149.73
2023-03-25T09:22:54.863Z,128.88
2023-03-25T09:23:59.571Z,144.35
2023-03-25T09:25:01.790Z,151.02
2023-03-25T09:26:06.779Z,150.20
2023-03-25T09:27:09.404Z,205.45
2023-03-25T09:28:14.783Z,204.80
2023-03-25T09:29:17.235Z,195.10
2023-03-25T09:30:22.138Z,203.50
2023-03-25T09:31:24.632Z,139.77
2023-03-25T09:32:29.523Z,155.18
2023-03-25T09:33:32.025Z,138.82
2023-03-25T09:34:38.342Z,149.13
2023-03-25T09:35:43.153Z,141.70
2023-03-25T09:36:48.278Z,135.45
2023-03-25T09:37:53.028Z,127.22
2023-03-25T09:38:55.209Z,139.25
2023-03-25T09:40:00.306Z,124.13
2023-03-25T09:41:05.532Z,146.68
2023-03-25T09:42:28.088Z,180.40
2023-03-25T09:43:42.850Z,202.18
2023-03-25T09:44:55.700Z,204.02
2023-03-25T09:46:02.928Z,161.25
2023-03-25T09:47:06.131Z,178.35
2023-03-25T09:48:27.812Z,253.07
2023-03-25T09:49:39.216Z,221.63
2023-03-25T09:50:48.361Z,195.32
2023-03-25T09:53:07.985Z,230.60
2023-03-25T09:54:23.437Z,230.98
2023-03-25T09:55:29.106Z,134.18
2023-03-25T09:56:42.166Z,171.38
2023-03-25T09:57:49.340Z,174.10
2023-03-25T09:58:57.303Z,154.18
2023-03-25T10:00:02.203Z,139.02
2023-03-25T10:01:31.506Z,197.93
2023-03-25T10:02:43.307Z,196.25
2023-03-25T10:03:56.020Z,135.07
2023-03-25T10:05:40.268Z,199.55
2023-03-25T10:06:54.824Z,248.35
2023-03-25T10:08:13.660Z,138.52
2023-03-25T10:09:34.750Z,230.55
2023-03-25T10:10:46.288Z,142.48
2023-03-25T10:11:58.427Z,212.05
2023-03-25T10:13:15.104Z,322.25
2023-03-25T10:14:25.178Z,220.30
2023-03-25T10:15:32.698Z,189.10
2023-03-25T10:16:51.354Z,223.95
2023-03-25T10:18:07.774Z,168.35
2023-03-25T10:19:27.935Z,252.48
2023-03-25T10:20:42.404Z,205.98
2023-03-25T10:21:55.947Z,186.48
2023-03-25T10:23:07.835Z,169.05
2023-03-25T10:24:21.438Z,263.92
2023-03-25T10:25:27.667Z,212.48
2023-03-25T10:26:39.572Z,239.02
2023-03-25T10:27:44.963Z,237.20
2023-03-25T10:28:54.599Z,201.20
2023-03-25T10:30:01.480Z,222.23
2023-03-25T10:31:08.831Z,214.18
2023-03-25T10:32:17.116Z,240.15
2023-03-25T10:33:32.013Z,184.20
2023-03-25T10:34:40.695Z,181.75
2023-03-25T10:35:49.004Z,127.43
2023-03-25T10:36:57.908Z,118.45
2023-03-25T10:38:13.904Z,215.50
2023-03-25T10:39:25.482Z,209.63
2023-03-25T10:40:49.376Z,355.58
2023-03-25T10:45:49.112Z,213.43
2023-03-25T10:47:06.057Z,201.48
2023-03-25T10:48:14.469Z,196.07
2023-03-25T10:49:22.265Z,224.65
2023-03-25T10:50:28.012Z,144.95
2023-03-25T10:51:32.650Z,128.27
2023-03-25T10:52:40.192Z,157.50
2023-03-25T10:53:45.450Z,156.13
2023-03-25T10:58:20.509Z,361.98
2023-03-25T10:59:42.028Z,714.42
2023-03-25T11:00:44.678Z,193.93
2023-03-25T11:01:51.363Z,206.48
2023-03-25T11:02:58.966Z,131.10
2023-03-25T11:04:04.249Z,141.63
2023-03-25T11:05:13.273Z,148.65
2023-03-25T11:06:24.804Z,224.50
2023-03-25T11:07:33.830Z,112.40
2023-03-25T11:08:58.693Z,154.15
2023-03-25T11:10:20.607Z,596.00
2023-03-25T11:11:32.882Z,347.48
2023-03-25T11:12:43.331Z,443.27
2023-03-25T11:13:49.879Z,317.75
2023-03-25T11:14:57.547Z,153.07
2023-03-25T11:16:06.904Z,149.73
2023-03-25T11:17:15.586Z,235.75
2023-03-25T11:18:29.086Z,633.47
2023-03-25T11:19:37.413Z,310.75
2023-03-25T11:20:52.044Z,333.42
2023-03-25T11:21:58.883Z,277.45
2023-03-25T11:23:11.969Z,398.73
2023-03-25T11:24:20.577Z,321.38
2023-03-25T11:25:30.002Z,331.90
2023-03-25T11:26:39.316Z,163.85
2023-03-25T11:27:49.734Z,171.75
2023-03-25T11:28:59.328Z,143.50
2023-03-25T11:30:05.684Z,143.13
2023-03-25T11:31:18.630Z,122.43
2023-03-25T11:33:01.651Z,214.50
2023-03-25T11:34:08.021Z,322.13
2023-03-25T11:35:31.135Z,160.05
2023-03-25T11:36:41.825Z,220.65
2023-03-25T11:37:51.449Z,141.80
2023-03-25T11:39:01.094Z,151.48
2023-03-25T11:40:21.265Z,313.02
2023-03-25T11:41:24.210Z,219.60
2023-03-25T11:42:35.274Z,219.73
2023-03-25T11:43:39.086Z,292.38
2023-03-25T11:44:44.411Z,178.60
2023-03-25T11:45:46.837Z,102.93
2023-03-25T11:46:55.485Z,128.57
2023-03-25T11:48:03.284Z,216.90
2023-03-25T11:49:10.188Z,152.90
2023-03-25T11:50:24.585Z,204.82
2023-03-25T11:51:30.184Z,166.43
2023-03-25T11:52:42.645Z,179.05
2023-03-25T11:53:50.059Z,204.50
2023-03-25T11:54:54.155Z,146.48
2023-03-25T11:56:10.829Z,172.10
2023-03-25T11:57:16.684Z,150.20
2023-03-25T11:58:25.050Z,128.75
2023-03-25T11:59:38.330Z,127.47
2023-03-25T12:00:42.377Z,161.75
2023-03-25T12:01:50.157Z,234.02
2023-03-25T12:03:01.078Z,232.93
2023-03-25T12:04:15.051Z,253.82
2023-03-25T12:05:17.664Z,209.70
2023-03-25T12:06:24.556Z,294.73
2023-03-25T12:07:29.510Z,232.88
2023-03-25T12:08:46.480Z,156.82
2023-03-25T12:09:56.674Z,178.10
2023-03-25T12:11:09.353Z,137.23
2023-03-25T12:12:49.759Z,205.40
2023-03-25T12:14:29.950Z,274.30
2023-03-25T12:15:41.826Z,226.25
2023-03-25T12:16:49.914Z,200.30
2023-03-25T12:18:10.792Z,215.13
2023-03-25T12:19:24.171Z,288.15
2023-03-25T12:20:34.431Z,577.30
2023-03-25T12:21:56.471Z,315.17
2023-03-25T12:24:28.145Z,317.38
2023-03-25T12:25:50.334Z,307.35
2023-03-25T12:27:14.675Z,348.55
2023-03-25T12:28:40.342Z,189.75
2023-03-25T12:29:51.832Z,293.20
2023-03-25T12:31:04.692Z,395.08
2023-03-25T12:32:20.597Z,286.45
2023-03-25T12:33:40.901Z,273.35
2023-03-25T12:34:57.708Z,254.32
2023-03-25T12:36:18.293Z,249.35
2023-03-25T12:37:33.572Z,207.85
2023-03-25T12:38:48.679Z,205.82
2023-03-25T12:40:11.182Z,163.85
2023-03-25T12:41:20.505Z,259.00
2023-03-25T12:42:38.923Z,238.52
2023-03-25T12:44:00.563Z,221.27
2023-03-25T12:45:50.082Z,254.50
2023-03-25T12:47:18.160Z,305.15
2023-03-25T12:48:41.920Z,263.45
2023-03-25T12:50:09.873Z,282.25
2023-03-25T12:51:22.812Z,433.40
2023-03-25T12:52:37.514Z,306.65
2023-03-25T12:53:53.453Z,286.50
2023-03-25T12:55:09.089Z,346.23
2023-03-25T12:56:29.424Z,419.30
2023-03-25T12:57:50.725Z,220.68
2023-03-25T12:59:18.784Z,180.68
2023-03-25T13:00:36.018Z,181.77
2023-03-25T13:01:49.830Z,160.10
2023-03-25T13:03:26.824Z,168.77
2023-03-25T13:05:02.107Z,228.85
2023-03-25T13:06:19.112Z,155.73
2023-03-25T13:07:28.792Z,283.70
2023-03-25T13:08:36.053Z,246.75
2023-03-25T13:09:55.134Z,282.42
2023-03-25T13:11:03.002Z,146.93
2023-03-25T13:12:15.114Z,139.35
2023-03-25T13:13:24.547Z,197.18
2023-03-25T13:14:33.814Z,205.40
2023-03-25T13:15:40.597Z,162.93
2023-03-25T13:16:46.911Z,153.50
2023-03-25T13:17:57.133Z,239.93
2023-03-25T13:19:08.494Z,210.30
2023-03-25T13:20:11.761Z,194.77
2023-03-25T13:21:21.955Z,179.77
2023-03-25T13:22:32.174Z,230.75
2023-03-25T13:23:36.977Z,126.72
2023-03-25T13:24:47.418Z,147.07
2023-03-25T13:25:54.543Z,129.10
2023-03-25T13:27:00.888Z,338.95
2023-03-25T13:28:09.959Z,208.98
2023-03-25T13:29:27.929Z,151.02
2023-03-25T13:30:37.761Z,134.27
2023-03-25T13:32:10.998Z,151.65
2023-03-25T13:35:32.339Z,170.95
2023-03-25T13:36:41.762Z,97.43
2023-03-25T13:37:49.739Z,105.22
2023-03-25T13:38:59.493Z,103.47
2023-03-25T13:40:18.207Z,113.65
2023-03-25T13:41:28.760Z,101.75
2023-03-25T13:42:38.442Z,139.88
2023-03-25T13:43:53.643Z,153.30
2023-03-25T13:45:00.672Z,104.22
2023-03-25T13:46:10.690Z,89.00
2023-03-25T13:47:19.229Z,97.35
2023-03-25T13:48:29.889Z,107.10
2023-03-25T13:49:39.588Z,72.00
2023-03-25T13:50:44.637Z,112.57
2023-03-25T13:51:49.402Z,84.43
2023-03-25T13:52:58.893Z,103.85
2023-03-25T13:54:08.790Z,86.70
2023-03-25T13:55:15.913Z,96.28
2023-03-25T13:57:02.249Z,112.53
2023-03-25T13:58:42.420Z,118.93
2023-03-25T14:00:10.307Z,81.53
2023-03-25T14:01:31.582Z,109.75
2023-03-25T14:02:54.785Z,107.47
2023-03-25T14:04:21.843Z,82.82
2023-03-25T14:05:53.152Z,139.15
2023-03-25T14:07:34.981Z,122.20
2023-03-25T14:09:15.642Z,82.28
2023-03-25T14:10:46.934Z,139.35
2023-03-25T14:11:55.823Z,125.25
2023-03-25T14:13:06.096Z,100.50
2023-03-25T14:14:13.265Z,97.78
2023-03-25T14:15:24.658Z,123.13
2023-03-25T14:16:33.404Z,190.50
2023-03-25T14:17:36.998Z,181.10
2023-03-25T14:18:45.706Z,129.20
2023-03-25T14:19:55.597Z,77.07
2023-03-25T14:21:01.290Z,117.97
2023-03-25T14:22:11.342Z,167.50
2023-03-25T14:23:22.896Z,154.77
2023-03-25T14:24:32.920Z,191.02
2023-03-25T14:25:45.039Z,168.60
2023-03-25T14:26:51.029Z,99.60
2023-03-25T14:27:56.763Z,69.38
2023-03-25T14:29:06.302Z,117.05
2023-03-25T14:30:26.540Z,57.42
2023-03-25T14:31:32.120Z,79.63
2023-03-25T14:32:39.131Z,58.35
2023-03-25T14:34:28.396Z,100.43